Time;durP1;ratioP1;P1;durP2;ratioP2;P2;SDS_P1;SDS_P2;PMS_P1;PMS_P2;Temp;Humidity;BMP_temperature;BMP_pressure;BME280_temperature;BME280_humidity;BME280_pressure;Samples;Min_cycle;Max_cycle;Signal;HPM_P1;HPM_P2
2024/01/27 00:01:34;;;;;;;9.50;2.97;;;11.90;88.60;;;;;;5018410;28;20044;-74
2024/01/27 00:04:00;;;;;;;7.55;3.10;;;11.90;88.70;;;;;;5008440;28;20042;-74
2024/01/27 00:06:26;;;;;;;11.77;3.58;;;11.90;88.70;;;;;;4998983;28;20076;-74
2024/01/27 00:08:52;;;;;;;11.40;3.10;;;11.80;88.60;;;;;;5018296;28;20485;-74
2024/01/27 00:11:17;;;;;;;9.32;3.15;;;11.80;88.60;;;;;;5013589;28;20108;-74
2024/01/27 00:13:44;;;;;;;9.95;3.53;;;11.80;88.50;;;;;;4983376;28;20052;-74
2024/01/27 00:16:09;;;;;;;13.80;3.13;;;11.80;88.50;;;;;;5008705;28;20083;-74
2024/01/27 00:18:38;;;;;;;9.27;3.22;;;11.80;88.60;;;;;;4997831;28;20045;-74
2024/01/27 00:21:05;;;;;;;10.32;3.13;;;11.80;88.40;;;;;;5008053;28;20072;-74
2024/01/27 00:23:32;;;;;;;10.27;3.60;;;11.80;88.50;;;;;;4997155;28;20053;-74
2024/01/27 00:25:58;;;;;;;10.60;3.38;;;11.80;88.40;;;;;;5016144;28;20563;-74
2024/01/27 00:28:24;;;;;;;12.15;3.63;;;11.80;88.40;;;;;;5010463;28;20042;-74
2024/01/27 00:30:50;;;;;;;7.55;3.17;;;11.80;88.40;;;;;;5007895;28;20485;-74
2024/01/27 00:33:16;;;;;;;9.57;3.53;;;11.80;88.40;;;;;;5020721;28;20040;-74
2024/01/27 00:35:41;;;;;;;9.57;3.50;;;11.80;88.40;;;;;;5008888;28;20276;-74
2024/01/27 00:38:07;;;;;;;11.90;2.42;;;11.80;88.40;;;;;;5006711;28;20033;-74
2024/01/27 00:40:33;;;;;;;10.60;3.85;;;11.80;88.40;;;;;;5000499;28;21741;-74
2024/01/27 00:42:58;;;;;;;9.65;2.83;;;11.80;88.40;;;;;;5010591;28;20052;-74
2024/01/27 00:45:26;;;;;;;14.75;3.42;;;11.70;88.30;;;;;;5008646;28;20378;-74
2024/01/27 00:47:51;;;;;;;12.38;3.92;;;11.70;88.20;;;;;;5007133;28;20037;-74
2024/01/27 00:50:17;;;;;;;10.63;3.40;;;11.70;88.20;;;;;;5021199;28;20550;-74
2024/01/27 00:52:43;;;;;;;11.95;3.55;;;11.70;88.20;;;;;;5011630;28;20550;-74
2024/01/27 00:55:08;;;;;;;10.55;3.75;;;11.70;88.20;;;;;;5010798;28;20045;-74
2024/01/27 00:57:37;;;;;;;10.43;3.28;;;11.70;88.10;;;;;;5012233;28;20063;-74
2024/01/27 01:00:03;;;;;;;8.30;3.30;;;11.70;88.10;;;;;;5006081;28;20038;-74
2024/01/27 01:02:29;;;;;;;12.65;3.58;;;11.80;88.10;;;;;;5006612;28;20037;-74
2024/01/27 01:04:55;;;;;;;11.88;4.13;;;11.70;88.10;;;;;;4991599;28;20569;-74
2024/01/27 01:07:21;;;;;;;6.53;2.50;;;11.70;88.10;;;;;;5007316;28;20125;-74
2024/01/27 01:09:46;;;;;;;9.48;3.38;;;11.70;88.10;;;;;;5036655;28;20042;-74
2024/01/27 01:12:12;;;;;;;10.30;3.33;;;11.70;88.10;;;;;;5005485;28;20072;-74
2024/01/27 01:14:39;;;;;;;7.47;2.30;;;11.70;88.10;;;;;;4988540;28;20041;-74
2024/01/27 01:17:05;;;;;;;9.83;3.10;;;11.70;88.20;;;;;;5005825;28;20041;-74
2024/01/27 01:19:30;;;;;;;8.57;3.10;;;11.70;88.10;;;;;;5008247;28;20038;-74
2024/01/27 01:21:56;;;;;;;10.90;3.65;;;11.70;88.80;;;;;;5011280;28;20056;-74
2024/01/27 01:24:22;;;;;;;9.23;3.67;;;11.70;88.10;;;;;;5011354;28;20159;-74
2024/01/27 01:26:47;;;;;;;8.45;3.22;;;11.70;88.10;;;;;;4996547;28;20065;-74
2024/01/27 01:29:13;;;;;;;10.50;3.72;;;11.70;88.10;;;;;;5011367;28;20408;-74
2024/01/27 01:31:41;;;;;;;9.95;3.17;;;11.70;88.20;;;;;;5005269;28;20132;-74
2024/01/27 01:34:06;;;;;;;7.97;3.30;;;11.70;88.10;;;;;;4975607;28;20413;-74
2024/01/27 01:36:32;;;;;;;8.80;2.85;;;11.70;88.10;;;;;;5008917;28;20041;-74
2024/01/27 01:38:58;;;;;;;7.00;2.35;;;11.70;88.10;;;;;;4989604;28;20037;-74
2024/01/27 01:41:23;;;;;;;9.50;3.33;;;11.70;88.20;;;;;;5012082;28;20103;-74
2024/01/27 01:43:49;;;;;;;8.45;2.90;;;11.70;88.10;;;;;;5009331;28;20557;-74
2024/01/27 01:46:14;;;;;;;8.18;2.83;;;11.60;87.90;;;;;;5010991;28;20036;-74
2024/01/27 01:48:40;;;;;;;5.90;2.58;;;11.60;87.90;;;;;;5010319;28;20033;-74
2024/01/27 01:51:05;;;;;;;7.35;3.15;;;11.60;87.90;;;;;;4977689;28;20095;-74
2024/01/27 01:53:31;;;;;;;11.52;3.40;;;11.60;88.00;;;;;;5011518;28;20037;-74
2024/01/27 01:55:57;;;;;;;6.25;2.35;;;11.60;88.00;;;;;;4995882;28;20041;-74
2024/01/27 01:58:22;;;;;;;7.47;2.38;;;11.60;88.00;;;;;;5023081;28;20164;-74
2024/01/27 02:00:48;;;;;;;8.90;3.30;;;11.60;88.00;;;;;;5011278;28;20045;-74
2024/01/27 02:03:14;;;;;;;9.32;3.13;;;11.60;87.90;;;;;;5007971;28;20469;-74
2024/01/27 02:05:39;;;;;;;9.25;2.70;;;11.60;87.90;;;;;;5006469;28;20038;-74
2024/01/27 02:08:05;;;;;;;9.18;2.83;;;11.60;87.90;;;;;;5009091;28;20077;-74
2024/01/27 02:10:36;;;;;;;12.32;3.25;;;11.60;87.90;;;;;;5004334;28;20103;-74
2024/01/27 02:13:05;;;;;;;6.43;2.25;;;11.60;87.90;;;;;;4997337;28;20052;-74
2024/01/27 02:15:31;;;;;;;11.00;3.20;;;11.60;87.90;;;;;;5005827;28;20429;-74
2024/01/27 02:17:57;;;;;;;8.80;2.97;;;11.70;87.90;;;;;;4993770;28;20124;-74
2024/01/27 02:20:23;;;;;;;8.95;2.83;;;11.60;87.90;;;;;;4992576;28;20161;-74
2024/01/27 02:22:48;;;;;;;9.93;2.53;;;11.50;87.80;;;;;;4997735;28;20037;-74
2024/01/27 02:25:14;;;;;;;9.07;2.17;;;11.60;87.90;;;;;;5012268;28;20065;-74
2024/01/27 02:27:39;;;;;;;10.32;3.05;;;11.60;87.90;;;;;;5024781;28;20498;-74
2024/01/27 02:30:06;;;;;;;10.25;3.13;;;11.60;87.90;;;;;;5006859;28;20041;-74
2024/01/27 02:32:31;;;;;;;12.77;3.03;;;11.60;87.80;;;;;;4999592;28;20041;-74
2024/01/27 02:34:57;;;;;;;7.15;2.88;;;11.60;87.80;;;;;;5013941;28;20037;-74
2024/01/27 02:37:22;;;;;;;7.28;1.88;;;11.50;87.70;;;;;;5009846;28;20529;-74
2024/01/27 02:39:48;;;;;;;8.40;2.53;;;11.60;87.80;;;;;;5009024;28;20037;-74
2024/01/27 02:42:14;;;;;;;7.50;2.25;;;11.60;87.80;;;;;;4992256;28;20033;-74
2024/01/27 02:44:39;;;;;;;10.13;2.55;;;11.50;87.60;;;;;;5010208;28;20045;-74
2024/01/27 02:47:05;;;;;;;9.27;2.92;;;11.50;87.60;;;;;;4981064;28;20051;-74
2024/01/27 02:49:30;;;;;;;7.00;2.70;;;11.60;87.60;;;;;;4987839;28;20143;-74
2024/01/27 02:51:56;;;;;;;8.68;3.05;;;11.50;87.40;;;;;;4994386;28;20129;-74
2024/01/27 02:54:22;;;;;;;7.95;2.78;;;11.50;87.50;;;;;;4993601;28;20075;-74
2024/01/27 02:56:47;;;;;;;9.30;3.17;;;11.50;87.40;;;;;;5010885;28;20029;-74
2024/01/27 02:59:13;;;;;;;9.55;2.72;;;11.50;87.40;;;;;;5011531;28;20044;-74
2024/01/27 03:01:38;;;;;;;9.15;2.88;;;11.50;87.50;;;;;;5027102;28;20109;-74
2024/01/27 03:04:04;;;;;;;10.40;3.45;;;11.50;87.40;;;;;;5009821;28;20128;-74
2024/01/27 03:06:30;;;;;;;7.38;2.85;;;11.50;87.30;;;;;;5012270;28;20033;-74
2024/01/27 03:08:55;;;;;;;11.63;3.40;;;11.50;87.30;;;;;;5011144;28;20192;-74
2024/01/27 03:11:21;;;;;;;9.20;3.35;;;11.50;87.30;;;;;;4974578;28;20477;-74
2024/01/27 03:13:47;;;;;;;8.90;3.67;;;11.40;87.20;;;;;;4993951;28;20217;-74
2024/01/27 03:16:13;;;;;;;7.47;2.42;;;11.50;87.30;;;;;;5011224;28;20060;-74
2024/01/27 03:18:38;;;;;;;6.80;2.67;;;11.50;87.30;;;;;;5012747;28;20038;-74
2024/01/27 03:21:06;;;;;;;7.63;2.47;;;11.50;87.30;;;;;;4975039;28;20030;-74
2024/01/27 03:23:31;;;;;;;7.43;2.88;;;11.40;87.20;;;;;;5006165;28;20030;-74
2024/01/27 03:25:57;;;;;;;6.50;3.00;;;11.40;87.20;;;;;;4993472;28;20182;-74
2024/01/27 03:28:23;;;;;;;10.32;3.13;;;11.40;87.20;;;;;;5028172;28;20049;-74
2024/01/27 03:30:48;;;;;;;9.88;3.00;;;11.40;87.10;;;;;;5010057;28;20132;-74
2024/01/27 03:33:14;;;;;;;10.85;3.70;;;11.40;87.10;;;;;;4987783;28;20084;-74
2024/01/27 03:35:39;;;;;;;9.07;3.20;;;11.40;87.10;;;;;;5002616;28;20046;-74
2024/01/27 03:38:05;;;;;;;8.90;3.03;;;11.40;87.10;;;;;;5004286;28;20044;-73
2024/01/27 03:40:31;;;;;;;10.13;3.08;;;11.40;87.80;;;;;;5025103;28;20110;-74
2024/01/27 03:42:57;;;;;;;8.82;3.60;;;11.40;87.10;;;;;;5036098;28;20030;-74
2024/01/27 03:45:22;;;;;;;11.15;3.55;;;11.40;87.10;;;;;;4971316;28;20048;-74
2024/01/27 03:47:48;;;;;;;8.68;3.05;;;11.40;87.00;;;;;;5036891;28;20033;-74
2024/01/27 03:50:14;;;;;;;11.55;3.33;;;11.40;87.00;;;;;;5012144;28;20084;-74
2024/01/27 03:52:39;;;;;;;10.55;3.85;;;11.40;87.00;;;;;;4976783;28;20459;-74
2024/01/27 03:55:05;;;;;;;10.95;3.15;;;11.40;87.00;;;;;;5011219;28;20048;-74
2024/01/27 03:57:31;;;;;;;9.82;2.70;;;11.40;87.00;;;;;;5008139;28;20044;-74
2024/01/27 03:59:57;;;;;;;7.97;3.38;;;11.40;86.90;;;;;;5010182;28;20038;-74
2024/01/27 04:02:22;;;;;;;9.00;2.60;;;11.40;87.00;;;;;;5021572;28;20408;-74
2024/01/27 04:04:48;;;;;;;10.50;2.70;;;11.40;86.90;;;;;;4989768;28;20041;-74
2024/01/27 04:07:13;;;;;;;9.60;2.92;;;11.30;86.80;;;;;;5005689;28;20044;-74
2024/01/27 04:09:39;;;;;;;7.03;2.85;;;11.30;86.80;;;;;;5011949;28;20132;-74
2024/01/27 04:12:05;;;;;;;9.65;3.33;;;11.30;86.80;;;;;;5005185;28;20037;-74
2024/01/27 04:14:31;;;;;;;11.68;3.03;;;11.30;86.80;;;;;;5024905;28;20057;-74
2024/01/27 04:16:56;;;;;;;10.95;3.08;;;11.30;86.80;;;;;;4996330;28;20504;-74
2024/01/27 04:19:22;;;;;;;10.38;2.88;;;11.30;86.80;;;;;;5012736;28;20080;-74
2024/01/27 04:21:47;;;;;;;7.65;2.55;;;11.30;86.80;;;;;;5014413;28;20041;-74
2024/01/27 04:24:13;;;;;;;6.72;3.33;;;11.30;86.80;;;;;;5003149;28;20106;-74
2024/01/27 04:26:39;;;;;;;8.10;3.00;;;11.30;86.70;;;;;;5012904;28;20501;-74
2024/01/27 04:29:04;;;;;;;7.40;3.40;;;11.30;86.70;;;;;;5012547;28;20517;-74
2024/01/27 04:31:31;;;;;;;8.98;2.85;;;11.30;86.70;;;;;;5016268;28;20037;-74
2024/01/27 04:33:58;;;;;;;9.60;3.00;;;11.30;86.70;;;;;;5013062;28;20072;-74
2024/01/27 04:36:30;;;;;;;7.00;2.85;;;11.30;86.70;;;;;;5029244;28;20133;-74
2024/01/27 04:38:55;;;;;;;7.05;3.00;;;11.30;86.60;;;;;;4996545;28;20274;-74
2024/01/27 04:41:21;;;;;;;5.30;2.50;;;11.30;86.60;;;;;;5014974;28;20496;-74
2024/01/27 04:43:47;;;;;;;10.82;4.32;;;11.30;86.60;;;;;;5014468;28;20041;-74
2024/01/27 04:46:12;;;;;;;8.32;3.47;;;11.30;86.60;;;;;;5011114;28;20041;-74
2024/01/27 04:48:38;;;;;;;7.28;2.47;;;11.30;86.60;;;;;;5012153;28;20063;-74
2024/01/27 04:51:03;;;;;;;12.38;2.90;;;11.30;86.60;;;;;;5008705;28;20045;-74
2024/01/27 04:53:29;;;;;;;7.68;2.88;;;11.30;86.50;;;;;;5015297;28;20123;-74
2024/01/27 04:55:55;;;;;;;8.18;2.90;;;11.30;86.50;;;;;;5009598;28;20042;-74
2024/01/27 04:58:20;;;;;;;8.52;3.20;;;11.30;86.60;;;;;;5010740;28;20041;-74
2024/01/27 05:00:46;;;;;;;9.40;2.70;;;11.30;87.20;;;;;;4993798;28;20034;-74
2024/01/27 05:03:13;;;;;;;9.00;2.97;;;11.30;86.50;;;;;;4997128;28;20029;-74
2024/01/27 05:05:42;;;;;;;5.88;2.92;;;11.20;86.40;;;;;;5013007;28;20136;-74
2024/01/27 05:08:09;;;;;;;5.95;2.30;;;11.20;86.40;;;;;;5013279;28;20071;-74
2024/01/27 05:10:35;;;;;;;6.68;2.22;;;11.20;86.30;;;;;;5009192;28;20144;-74
2024/01/27 05:13:01;;;;;;;7.88;3.67;;;11.20;86.40;;;;;;5009901;28;20132;-74
2024/01/27 05:15:26;;;;;;;8.10;3.08;;;11.20;86.40;;;;;;5013646;28;20124;-74
2024/01/27 05:17:52;;;;;;;7.80;3.10;;;11.20;86.30;;;;;;5012410;28;20037;-74
2024/01/27 05:20:19;;;;;;;9.70;2.90;;;11.20;86.30;;;;;;5013511;28;20254;-74
2024/01/27 05:22:44;;;;;;;7.22;2.17;;;11.20;86.30;;;;;;5010496;28;20042;-74
2024/01/27 05:25:11;;;;;;;7.38;2.50;;;11.20;86.30;;;;;;5009418;28;20062;-73
2024/01/27 05:27:39;;;;;;;7.45;2.85;;;11.20;86.30;;;;;;4995652;28;20398;-73
2024/01/27 05:30:08;;;;;;;9.82;2.80;;;11.20;86.50;;;;;;5013080;28;20438;-73
2024/01/27 05:32:34;;;;;;;7.15;2.35;;;11.20;86.30;;;;;;5013698;28;20053;-73
2024/01/27 05:35:00;;;;;;;7.43;2.80;;;11.20;86.30;;;;;;5011198;28;20080;-73
2024/01/27 05:37:25;;;;;;;5.35;2.30;;;11.20;86.20;;;;;;5023666;28;20691;-73
2024/01/27 05:39:51;;;;;;;6.72;2.08;;;11.20;86.20;;;;;;4997375;28;20044;-73
2024/01/27 05:42:17;;;;;;;8.18;3.08;;;11.20;86.20;;;;;;4995285;28;20096;-73
2024/01/27 05:44:42;;;;;;;9.65;2.17;;;11.20;86.20;;;;;;4996568;28;20099;-73
2024/01/27 05:47:10;;;;;;;8.98;3.20;;;11.20;86.10;;;;;;5011156;28;20049;-73
2024/01/27 05:49:36;;;;;;;6.95;2.28;;;11.10;86.10;;;;;;4996449;28;20412;-73
2024/01/27 05:52:02;;;;;;;5.25;2.00;;;11.10;86.10;;;;;;5012653;28;20037;-73
2024/01/27 05:54:27;;;;;;;7.07;2.60;;;11.10;86.10;;;;;;5009962;28;20084;-73
2024/01/27 05:56:53;;;;;;;7.60;2.40;;;11.10;86.80;;;;;;5012707;28;20041;-73
2024/01/27 05:59:19;;;;;;;6.60;2.95;;;11.10;86.10;;;;;;4993152;28;20041;-73
2024/01/27 06:01:44;;;;;;;11.80;3.08;;;11.10;86.10;;;;;;5010982;28;20038;-73
2024/01/27 06:04:12;;;;;;;8.60;2.35;;;11.10;86.40;;;;;;5008916;28;20037;-73
2024/01/27 06:06:39;;;;;;;8.88;2.92;;;11.10;86.10;;;;;;4974707;28;20390;-73
2024/01/27 06:09:05;;;;;;;8.32;3.00;;;11.20;86.20;;;;;;5001381;28;20052;-73
2024/01/27 06:11:30;;;;;;;5.68;2.53;;;11.10;86.10;;;;;;5012344;28;20042;-73
2024/01/27 06:13:56;;;;;;;9.82;2.45;;;11.10;86.10;;;;;;4995797;28;20128;-73
2024/01/27 06:16:23;;;;;;;8.27;2.83;;;11.10;86.10;;;;;;5026655;28;20045;-73
2024/01/27 06:18:48;;;;;;;8.35;2.45;;;11.10;86.10;;;;;;5010191;28;20042;-73
2024/01/27 06:21:14;;;;;;;8.02;3.42;;;11.10;86.20;;;;;;4995350;28;20037;-73
2024/01/27 06:23:40;;;;;;;8.70;3.03;;;11.10;86.10;;;;;;5009527;28;20422;-73
2024/01/27 06:26:06;;;;;;;5.57;2.88;;;11.10;86.10;;;;;;4976259;28;20084;-73
2024/01/27 06:28:32;;;;;;;7.55;3.03;;;11.10;86.00;;;;;;4992402;28;20056;-73
2024/01/27 06:30:58;;;;;;;5.88;2.75;;;11.10;86.00;;;;;;4995914;28;20553;-73
2024/01/27 06:33:23;;;;;;;12.15;3.58;;;11.10;85.90;;;;;;5026324;28;20501;-73
2024/01/27 06:35:49;;;;;;;9.18;2.90;;;11.10;85.90;;;;;;5011939;28;20073;-73
2024/01/27 06:38:15;;;;;;;11.48;3.53;;;11.10;85.90;;;;;;5010255;28;20033;-73
2024/01/27 06:40:40;;;;;;;6.25;2.70;;;11.10;85.90;;;;;;5010945;28;20041;-73
2024/01/27 06:43:06;;;;;;;8.55;2.90;;;11.10;85.90;;;;;;4997251;28;20041;-73
2024/01/27 06:45:32;;;;;;;7.30;3.20;;;11.10;85.90;;;;;;5003512;28;20049;-73
2024/01/27 06:47:57;;;;;;;8.77;3.45;;;11.10;85.90;;;;;;5011213;28;20045;-73
2024/01/27 06:50:23;;;;;;;9.07;2.70;;;11.10;85.90;;;;;;5011736;28;20060;-73
2024/01/27 06:52:49;;;;;;;8.07;3.17;;;11.10;85.80;;;;;;5009041;28;20149;-73
2024/01/27 06:55:14;;;;;;;8.82;3.67;;;11.10;85.90;;;;;;5008157;28;20034;-77
2024/01/27 06:57:40;;;;;;;15.60;3.13;;;11.10;85.90;;;;;;5009270;28;20163;-72
2024/01/27 07:00:06;;;;;;;14.35;3.60;;;11.00;85.80;;;;;;5011536;28;20128;-72
2024/01/27 07:02:32;;;;;;;11.20;3.05;;;11.00;85.80;;;;;;5012649;28;20037;-72
2024/01/27 07:04:58;;;;;;;7.30;2.95;;;11.00;85.80;;;;;;5013118;28;20401;-72
2024/01/27 07:07:26;;;;;;;10.65;3.00;;;11.00;85.80;;;;;;5009230;28;20124;-72
2024/01/27 07:09:55;;;;;;;12.95;3.25;;;11.00;85.80;;;;;;4996330;28;20563;-72
2024/01/27 07:12:20;;;;;;;8.85;2.95;;;11.00;85.70;;;;;;4996043;28;20041;-72
2024/01/27 07:14:46;;;;;;;8.07;2.88;;;11.00;85.80;;;;;;5012365;28;20068;-72
2024/01/27 07:17:12;;;;;;;8.70;3.28;;;11.00;85.70;;;;;;4980565;28;20040;-72
2024/01/27 07:19:37;;;;;;;9.65;3.45;;;11.00;85.70;;;;;;4979712;28;20030;-72
2024/01/27 07:22:06;;;;;;;8.55;3.72;;;11.00;86.40;;;;;;5013136;28;20044;-72
2024/01/27 07:24:32;;;;;;;8.43;2.75;;;11.00;85.60;;;;;;4980944;28;20054;-72
2024/01/27 07:27:00;;;;;;;12.18;3.92;;;11.00;85.60;;;;;;5012232;28;20042;-72
2024/01/27 07:29:26;;;;;;;;;;;11.00;85.60;;;;;;5013900;28;20219;-72
2024/01/27 07:31:51;;;;;;;7.68;3.72;;;11.00;85.40;;;;;;5012051;28;19917;-72
2024/01/27 07:34:17;;;;;;;5.47;1.98;;;10.90;85.50;;;;;;4996961;28;20050;-72
2024/01/27 07:36:43;;;;;;;6.78;3.30;;;11.00;85.50;;;;;;4979222;28;20069;-72
2024/01/27 07:39:09;;;;;;;12.38;3.97;;;10.90;85.40;;;;;;4979867;28;20044;-72
2024/01/27 07:41:35;;;;;;;9.00;3.83;;;10.90;85.30;;;;;;4994372;28;20034;-72
2024/01/27 07:44:08;;;;;;;8.48;3.30;;;10.90;85.00;;;;;;5013435;28;20045;-71
2024/01/27 07:46:34;;;;;;;8.52;4.18;;;10.80;84.80;;;;;;5011002;28;20567;-72
2024/01/27 07:49:00;;;;;;;7.20;3.17;;;10.80;84.90;;;;;;4996790;28;20128;-72
2024/01/27 07:51:26;;;;;;;10.93;4.30;;;10.80;85.00;;;;;;4999044;28;20512;-71
2024/01/27 07:53:52;;;;;;;9.70;3.72;;;10.80;84.70;;;;;;5015605;28;20045;-71
2024/01/27 07:56:18;;;;;;;9.85;4.03;;;10.70;84.50;;;;;;5015505;28;20064;-71
2024/01/27 07:58:43;;;;;;;10.85;4.63;;;10.70;84.60;;;;;;4999765;28;20038;-71
2024/01/27 08:01:09;;;;;;;11.77;4.40;;;10.70;84.80;;;;;;4983087;28;20103;-71
2024/01/27 08:03:35;;;;;;;9.02;3.53;;;10.80;84.90;;;;;;5016247;28;20520;-71
2024/01/27 08:06:05;;;;;;;12.25;4.32;;;10.70;85.00;;;;;;5015608;28;20037;-71
2024/01/27 08:08:30;;;;;;;8.52;3.45;;;10.80;85.10;;;;;;5004173;28;20382;-71
2024/01/27 08:10:56;;;;;;;8.90;3.08;;;10.80;85.20;;;;;;5014303;28;20045;-71
2024/01/27 08:13:21;;;;;;;9.73;4.15;;;10.80;85.30;;;;;;5015010;28;20512;-71
2024/01/27 08:15:47;;;;;;;9.70;4.20;;;10.80;86.00;;;;;;5015413;28;20091;-71
2024/01/27 08:18:13;;;;;;;8.30;3.67;;;10.80;85.30;;;;;;5015944;28;20045;-71
2024/01/27 08:20:38;;;;;;;10.65;3.25;;;10.80;85.30;;;;;;5015797;28;20417;-71
2024/01/27 08:23:04;;;;;;;10.65;3.85;;;10.80;85.40;;;;;;5014857;28;20040;-71
2024/01/27 08:25:29;;;;;;;11.27;3.97;;;10.80;85.40;;;;;;5015270;28;20061;-71
2024/01/27 08:27:55;;;;;;;7.70;3.28;;;10.80;85.40;;;;;;4999765;28;20045;-71
2024/01/27 08:30:21;;;;;;;6.65;3.40;;;10.80;85.40;;;;;;5016080;28;20109;-71
2024/01/27 08:32:47;;;;;;;5.82;2.80;;;10.80;85.40;;;;;;5033076;28;20052;-71
2024/01/27 08:35:12;;;;;;;6.35;3.00;;;10.80;85.40;;;;;;5014349;28;20421;-71
2024/01/27 08:37:38;;;;;;;9.35;4.03;;;10.80;85.50;;;;;;5014305;28;20048;-71
2024/01/27 08:40:06;;;;;;;7.40;3.78;;;10.80;85.60;;;;;;5014897;28;20057;-71
2024/01/27 08:42:31;;;;;;;6.80;3.20;;;10.80;85.60;;;;;;4999633;28;20033;-71
2024/01/27 08:44:57;;;;;;;7.80;3.22;;;10.80;85.60;;;;;;5011228;28;20359;-71
2024/01/27 08:47:23;;;;;;;9.38;3.83;;;10.80;85.50;;;;;;5015270;28;20437;-71
2024/01/27 08:49:48;;;;;;;8.48;4.00;;;10.80;85.60;;;;;;4998907;28;20124;-71
2024/01/27 08:52:14;;;;;;;7.95;3.38;;;10.90;85.70;;;;;;5015859;28;20095;-71
2024/01/27 08:54:40;;;;;;;8.77;3.83;;;10.80;85.60;;;;;;5016359;28;20076;-71
2024/01/27 08:57:06;;;;;;;8.20;3.53;;;10.90;85.70;;;;;;4976678;28;20513;-71
2024/01/27 08:59:32;;;;;;;8.07;3.75;;;10.90;85.80;;;;;;5044034;28;20052;-71
2024/01/27 09:01:58;;;;;;;7.22;3.08;;;10.90;85.80;;;;;;5031803;28;20085;-71
2024/01/27 09:04:24;;;;;;;8.35;3.30;;;10.90;85.80;;;;;;5015516;28;20508;-71
2024/01/27 09:06:49;;;;;;;10.73;4.03;;;10.80;85.80;;;;;;5030546;28;20107;-71
2024/01/27 09:09:15;;;;;;;5.82;3.05;;;10.90;86.50;;;;;;5048040;28;20043;-71
2024/01/27 09:11:40;;;;;;;10.52;4.15;;;10.90;85.80;;;;;;4999193;28;20041;-71
2024/01/27 09:14:07;;;;;;;7.85;3.35;;;10.90;85.80;;;;;;4999099;28;20041;-71
2024/01/27 09:16:33;;;;;;;8.05;2.88;;;10.90;85.80;;;;;;4983179;28;20072;-71
2024/01/27 09:18:59;;;;;;;8.15;3.15;;;10.90;85.80;;;;;;5015907;28;20056;-71
2024/01/27 09:21:28;;;;;;;7.65;3.33;;;10.90;85.80;;;;;;5015334;28;20519;-71
2024/01/27 09:23:57;;;;;;;6.20;3.13;;;10.90;85.80;;;;;;5016089;28;20095;-71
2024/01/27 09:26:23;;;;;;;9.15;3.60;;;10.90;85.80;;;;;;5015081;28;20141;-72
2024/01/27 09:28:54;;;;;;;7.93;3.67;;;10.90;85.90;;;;;;5030842;28;20496;-71
2024/01/27 09:31:23;;;;;;;6.93;2.78;;;10.90;86.10;;;;;;5011536;28;20032;-72
2024/01/27 09:33:51;;;;;;;7.10;3.15;;;11.00;85.90;;;;;;5010284;28;20037;-72
2024/01/27 09:36:17;;;;;;;8.93;3.75;;;10.90;85.90;;;;;;5013802;28;20389;-71
2024/01/27 09:38:42;;;;;;;7.40;4.03;;;10.90;85.90;;;;;;5012807;28;20063;-72
2024/01/27 09:41:09;;;;;;;11.43;4.63;;;10.90;86.60;;;;;;4996272;28;20477;-72
2024/01/27 09:43:35;;;;;;;11.23;3.80;;;10.90;85.80;;;;;;5013415;28;20041;-72
2024/01/27 09:46:02;;;;;;;9.18;3.50;;;11.00;85.90;;;;;;5014567;28;20072;-72
2024/01/27 09:48:28;;;;;;;9.77;3.88;;;10.90;85.90;;;;;;5011465;28;20057;-72
2024/01/27 09:50:54;;;;;;;7.22;3.70;;;11.00;86.00;;;;;;5013650;28;20041;-72
2024/01/27 09:53:19;;;;;;;11.65;3.30;;;11.00;86.00;;;;;;4994525;28;20038;-72
2024/01/27 09:55:45;;;;;;;7.57;3.20;;;11.00;86.00;;;;;;4994467;28;20516;-72
2024/01/27 09:58:11;;;;;;;7.40;3.25;;;11.00;86.00;;;;;;4990936;28;20115;-72
2024/01/27 10:00:36;;;;;;;8.55;3.40;;;11.00;86.00;;;;;;5012933;28;20045;-72
2024/01/27 10:03:03;;;;;;;9.88;4.68;;;11.00;86.80;;;;;;5013683;28;20095;-72
2024/01/27 10:05:29;;;;;;;7.47;3.13;;;11.00;86.00;;;;;;5013911;28;20095;-72
2024/01/27 10:07:54;;;;;;;7.43;3.70;;;11.00;86.00;;;;;;5013711;28;20037;-72
2024/01/27 10:10:20;;;;;;;7.07;3.47;;;10.90;86.10;;;;;;5009654;28;20038;-72
2024/01/27 10:12:46;;;;;;;7.28;3.17;;;11.00;86.20;;;;;;5026268;28;20044;-72
2024/01/27 10:15:22;;;;;;;6.93;3.72;;;10.90;86.10;;;;;;5012802;28;20119;-72
2024/01/27 10:17:47;;;;;;;9.48;4.90;;;11.00;86.20;;;;;;4981365;28;20042;-72
2024/01/27 10:20:15;;;;;;;10.40;4.55;;;11.00;86.20;;;;;;4995864;28;20037;-72
2024/01/27 10:22:41;;;;;;;11.68;4.65;;;11.00;86.20;;;;;;5023358;28;20056;-72
2024/01/27 10:25:08;;;;;;;6.65;3.28;;;11.00;86.20;;;;;;5012959;28;20057;-72
2024/01/27 10:27:33;;;;;;;10.98;4.68;;;11.00;86.30;;;;;;5013575;28;20049;-72
2024/01/27 10:29:59;;;;;;;5.90;3.30;;;11.00;86.30;;;;;;5012666;28;20041;-72
2024/01/27 10:32:25;;;;;;;11.95;3.75;;;11.00;86.30;;;;;;5012806;28;20044;-72
2024/01/27 10:35:02;;;;;;;10.85;3.90;;;11.00;86.30;;;;;;4996768;28;20431;-72
2024/01/27 10:37:28;;;;;;;10.20;4.25;;;11.00;86.30;;;;;;5009778;28;20452;-72
2024/01/27 10:40:10;;;;;;;7.57;3.58;;;11.10;86.40;;;;;;4994724;28;20104;-72
2024/01/27 10:42:36;;;;;;;10.15;4.80;;;11.10;86.40;;;;;;4977905;28;20087;-72
2024/01/27 10:45:02;;;;;;;9.13;3.78;;;11.10;86.40;;;;;;4999384;28;20041;-72
2024/01/27 10:47:31;;;;;;;8.73;4.32;;;11.10;86.30;;;;;;5013434;28;20033;-72
2024/01/27 10:49:58;;;;;;;11.02;3.85;;;11.10;86.40;;;;;;5012995;28;20048;-72
2024/01/27 10:52:28;;;;;;;10.50;4.80;;;11.10;87.20;;;;;;5012901;28;20493;-72
2024/01/27 10:55:03;;;;;;;12.65;4.88;;;11.10;86.60;;;;;;5007615;28;20130;-72
2024/01/27 10:57:31;;;;;;;8.60;4.35;;;11.10;86.80;;;;;;4976500;28;20277;-72
2024/01/27 10:59:57;;;;;;;8.35;4.03;;;11.00;86.80;;;;;;5013253;28;20125;-72
2024/01/27 11:02:23;;;;;;;7.97;4.00;;;11.10;86.70;;;;;;4996231;28;20457;-72
2024/01/27 11:04:50;;;;;;;9.30;3.72;;;11.10;86.70;;;;;;5028752;28;20084;-72
2024/01/27 11:07:16;;;;;;;7.97;4.63;;;11.10;86.70;;;;;;5011277;28;20124;-72
2024/01/27 11:09:42;;;;;;;12.85;4.78;;;11.10;86.70;;;;;;5013568;28;20041;-72
2024/01/27 11:12:08;;;;;;;8.50;3.08;;;11.20;86.70;;;;;;5012608;28;20389;-72
2024/01/27 11:14:33;;;;;;;9.20;4.43;;;11.20;86.70;;;;;;5011623;28;20041;-72
2024/01/27 11:16:59;;;;;;;7.85;3.88;;;11.10;86.70;;;;;;5011517;28;20152;-72
2024/01/27 11:19:25;;;;;;;7.25;4.28;;;11.20;86.70;;;;;;5013357;28;20037;-72
2024/01/27 11:22:03;;;;;;;9.15;3.85;;;11.20;86.80;;;;;;4980291;28;20044;-72
2024/01/27 11:24:29;;;;;;;9.85;4.45;;;11.20;86.80;;;;;;5012313;28;20053;-72
2024/01/27 11:27:05;;;;;;;7.55;4.00;;;11.20;86.80;;;;;;5015628;28;20041;-71
2024/01/27 11:29:32;;;;;;;9.30;3.42;;;11.20;86.80;;;;;;5016584;28;20084;-72
2024/01/27 11:32:03;;;;;;;8.80;3.80;;;11.20;86.80;;;;;;4985142;28;20116;-72
2024/01/27 11:34:40;;;;;;;8.13;4.20;;;11.30;86.80;;;;;;5015890;28;20065;-72
2024/01/27 11:37:13;;;;;;;10.10;4.57;;;11.20;86.80;;;;;;5009281;28;20034;-72
2024/01/27 11:39:39;;;;;;;7.97;3.42;;;11.20;86.80;;;;;;5015562;28;20408;-72
2024/01/27 11:42:14;;;;;;;9.55;3.80;;;11.30;86.80;;;;;;4984296;28;20048;-71
2024/01/27 11:44:40;;;;;;;7.05;3.53;;;11.30;86.80;;;;;;4984686;28;20099;-72
2024/01/27 11:47:14;;;;;;;8.15;3.70;;;11.30;86.80;;;;;;5012537;28;20121;-71
2024/01/27 11:49:40;;;;;;;7.70;3.78;;;11.30;86.90;;;;;;5030243;28;20505;-72
2024/01/27 11:52:06;;;;;;;7.65;3.25;;;11.30;86.90;;;;;;5016369;28;20073;-71
2024/01/27 11:54:32;;;;;;;8.82;3.20;;;11.30;86.80;;;;;;5016788;28;20041;-71
2024/01/27 11:56:58;;;;;;;8.32;3.33;;;11.30;86.80;;;;;;5016040;28;20443;-71
2024/01/27 11:59:23;;;;;;;8.38;3.22;;;11.30;86.80;;;;;;5016696;28;20037;-72
2024/01/27 12:01:49;;;;;;;8.38;3.28;;;11.30;86.80;;;;;;4999420;28;20033;-72
2024/01/27 12:04:15;;;;;;;6.80;2.95;;;11.40;86.90;;;;;;5014946;28;20033;-71
2024/01/27 12:06:42;;;;;;;7.38;3.17;;;11.40;86.90;;;;;;5015610;28;20083;-71
2024/01/27 12:09:11;;;;;;;5.15;2.92;;;11.40;86.90;;;;;;4973784;28;20033;-71
2024/01/27 12:11:39;;;;;;;7.30;3.10;;;11.40;86.90;;;;;;5033239;28;20037;-71
2024/01/27 12:14:04;;;;;;;6.57;3.03;;;11.40;87.00;;;;;;5015193;28;20734;-71
2024/01/27 12:16:30;;;;;;;8.68;3.58;;;11.40;86.90;;;;;;5016499;28;20045;-72
2024/01/27 12:18:55;;;;;;;7.53;3.08;;;11.40;86.90;;;;;;5015227;28;20448;-71
2024/01/27 12:21:21;;;;;;;7.80;3.65;;;11.40;86.90;;;;;;5016217;28;20041;-71
2024/01/27 12:23:50;;;;;;;11.48;3.40;;;11.40;86.90;;;;;;4998327;28;20034;-72
2024/01/27 12:26:16;;;;;;;6.15;3.40;;;11.40;87.10;;;;;;5032651;28;20068;-71
2024/01/27 12:28:45;;;;;;;4.47;2.15;;;11.40;87.10;;;;;;5031079;28;20124;-71
2024/01/27 12:31:10;;;;;;;7.05;3.20;;;11.40;87.10;;;;;;5015690;28;20106;-72
2024/01/27 12:33:36;;;;;;;8.68;3.38;;;11.50;87.10;;;;;;5014634;28;20065;-71
2024/01/27 12:36:01;;;;;;;6.03;2.85;;;11.50;87.10;;;;;;5014168;28;20064;-71
2024/01/27 12:38:27;;;;;;;5.82;3.08;;;11.50;87.10;;;;;;4999719;28;20497;-71
2024/01/27 12:40:53;;;;;;;6.18;2.67;;;11.50;87.00;;;;;;4997436;28;20129;-71